Time;durP1;ratioP1;P1;durP2;ratioP2;P2;SDS_P1;SDS_P2;PMS_P1;PMS_P2;Temp;Humidity;BMP_temperature;BMP_pressure;BME280_temperature;BME280_humidity;BME280_pressure;Samples;Min_cycle;Max_cycle;Signal;HPM_P1;HPM_P2
2023/06/21 00:01:35;;;;;;;11.90;8.82;;;19.90;99.90;;;;;;5092837;27;20054;-71
2023/06/21 00:04:01;;;;;;;13.18;10.05;;;19.80;99.90;;;;;;5091594;27;20683;-71
2023/06/21 00:06:30;;;;;;;15.32;10.80;;;19.80;99.90;;;;;;5093674;27;20047;-70
2023/06/21 00:08:57;;;;;;;15.63;10.75;;;19.80;99.90;;;;;;5089626;27;20039;-72
2023/06/21 00:11:23;;;;;;;18.13;12.93;;;19.80;99.90;;;;;;5091732;28;20066;-70
2023/06/21 00:13:49;;;;;;;16.95;13.38;;;19.80;99.90;;;;;;5092111;27;20047;-72
2023/06/21 00:16:15;;;;;;;17.90;14.10;;;19.80;99.90;;;;;;5078145;28;20116;-71
2023/06/21 00:18:40;;;;;;;18.88;15.32;;;19.80;99.90;;;;;;5091261;27;20482;-71
2023/06/21 00:21:06;;;;;;;20.00;15.07;;;19.70;99.90;;;;;;5076557;27;21299;-72
2023/06/21 00:23:33;;;;;;;21.20;15.65;;;19.70;99.90;;;;;;5076806;28;20295;-70
2023/06/21 00:25:58;;;;;;;20.15;15.07;;;19.70;99.90;;;;;;5096807;27;20455;-71
2023/06/21 00:28:24;;;;;;;22.73;16.98;;;19.70;99.90;;;;;;5071932;28;20055;-70
2023/06/21 00:30:50;;;;;;;23.42;17.08;;;19.70;99.90;;;;;;5073117;28;20062;-71
2023/06/21 00:33:16;;;;;;;23.75;17.15;;;19.70;99.90;;;;;;5076040;28;20130;-72
2023/06/21 00:35:42;;;;;;;24.23;16.27;;;19.70;99.90;;;;;;5062056;28;20378;-71
2023/06/21 00:38:12;;;;;;;20.20;14.40;;;19.70;99.90;;;;;;5094085;28;20048;-70
2023/06/21 00:40:41;;;;;;;22.88;14.95;;;19.70;99.90;;;;;;5048974;28;20042;-70
2023/06/21 00:43:07;;;;;;;21.35;15.25;;;19.70;99.90;;;;;;5092450;28;20074;-70
2023/06/21 00:45:39;;;;;;;21.77;14.93;;;19.70;99.90;;;;;;5094375;28;20062;-70
2023/06/21 00:48:05;;;;;;;19.58;15.50;;;19.70;99.90;;;;;;5088305;28;20771;-71
2023/06/21 00:50:30;;;;;;;26.88;16.67;;;19.70;99.90;;;;;;5090503;28;20035;-70
2023/06/21 00:52:56;;;;;;;22.98;16.25;;;19.70;99.90;;;;;;5091899;28;20062;-72
2023/06/21 00:55:23;;;;;;;22.38;16.10;;;19.70;99.90;;;;;;5091711;28;20109;-70
2023/06/21 00:57:49;;;;;;;24.08;16.75;;;19.70;99.90;;;;;;5093858;28;20549;-71
2023/06/21 01:00:21;;;;;;;23.55;16.17;;;19.70;99.90;;;;;;5089895;28;20036;-72
2023/06/21 01:02:52;;;;;;;21.80;14.48;;;19.60;99.90;;;;;;5094291;28;20105;-72
2023/06/21 01:05:21;;;;;;;20.88;15.90;;;19.60;99.90;;;;;;5088985;28;20430;-72
2023/06/21 01:08:01;;;;;;;24.17;15.75;;;19.60;99.90;;;;;;5076831;28;20447;-72
2023/06/21 01:10:47;;;;;;;23.00;16.45;;;19.60;99.90;;;;;;5087679;28;20168;-71
2023/06/21 01:13:37;;;;;;;21.73;15.73;;;19.60;99.90;;;;;;5093999;28;20071;-72
2023/06/21 01:16:23;;;;;;;20.98;14.55;;;19.50;99.90;;;;;;5092536;28;20104;-71
2023/06/21 01:18:51;;;;;;;;;;;19.50;99.90;;;;;;5091120;28;20101;-71
2023/06/21 01:21:22;;;;;;;23.20;14.23;;;19.50;99.90;;;;;;5091201;28;20472;-72
2023/06/21 01:24:14;;;;;;;22.45;14.77;;;19.50;99.90;;;;;;5093587;28;20055;-70
2023/06/21 01:26:52;;;;;;;17.98;13.05;;;19.50;99.90;;;;;;5063633;27;20491;-71
2023/06/21 01:29:23;;;;;;;19.60;13.27;;;19.50;99.90;;;;;;5093693;27;20040;-71
2023/06/21 01:31:52;;;;;;;22.38;13.35;;;19.50;99.90;;;;;;5079469;27;20081;-71
2023/06/21 01:34:18;;;;;;;18.88;13.25;;;19.50;99.90;;;;;;5096762;27;20050;-70
2023/06/21 01:36:44;;;;;;;19.77;12.88;;;19.50;99.90;;;;;;5093321;27;20502;-71
2023/06/21 01:39:10;;;;;;;17.08;12.27;;;19.50;99.90;;;;;;5057721;27;20038;-71
2023/06/21 01:41:36;;;;;;;17.85;10.85;;;19.50;99.90;;;;;;5089058;27;20058;-70
2023/06/21 01:44:10;;;;;;;18.80;12.48;;;19.50;99.90;;;;;;5095992;27;20410;-72
2023/06/21 01:46:37;;;;;;;19.20;11.80;;;19.50;99.90;;;;;;5094337;27;20067;-70
2023/06/21 01:49:06;;;;;;;14.93;9.88;;;19.50;99.90;;;;;;5094686;27;20473;-72
2023/06/21 01:51:37;;;;;;;14.43;9.40;;;19.50;99.90;;;;;;5094653;27;20058;-70
2023/06/21 01:54:03;;;;;;;14.52;9.15;;;19.40;99.90;;;;;;5066724;27;20088;-71
2023/06/21 01:56:30;;;;;;;15.60;9.73;;;19.40;99.90;;;;;;5108917;27;20066;-71
2023/06/21 01:58:55;;;;;;;15.02;8.35;;;19.40;99.90;;;;;;5096627;27;20047;-71
2023/06/21 02:01:26;;;;;;;13.35;9.02;;;19.40;99.90;;;;;;5083133;27;20039;-71
2023/06/21 02:03:55;;;;;;;14.13;8.68;;;19.40;99.90;;;;;;5092122;27;20036;-71
2023/06/21 02:06:24;;;;;;;16.33;9.02;;;19.40;99.90;;;;;;5091361;27;20078;-70
2023/06/21 02:08:50;;;;;;;13.45;7.63;;;19.40;99.90;;;;;;5097955;27;20055;-71
2023/06/21 02:11:17;;;;;;;14.25;8.43;;;19.40;99.90;;;;;;5094509;28;20067;-72
2023/06/21 02:13:48;;;;;;;13.25;7.43;;;19.40;99.90;;;;;;5080408;27;20435;-72
2023/06/21 02:16:15;;;;;;;12.00;8.00;;;19.30;99.90;;;;;;5096136;27;20048;-70
2023/06/21 02:18:41;;;;;;;10.57;7.35;;;19.30;99.90;;;;;;5095854;27;20521;-73
2023/06/21 02:21:06;;;;;;;14.27;7.70;;;19.30;99.90;;;;;;5082549;27;20051;-71
2023/06/21 02:23:32;;;;;;;13.02;7.28;;;19.30;99.90;;;;;;5093372;27;20055;-70
2023/06/21 02:25:58;;;;;;;13.85;7.22;;;19.30;99.90;;;;;;5063334;27;20146;-72
2023/06/21 02:28:24;;;;;;;14.40;7.28;;;19.30;99.90;;;;;;5080716;27;20042;-70
2023/06/21 02:30:49;;;;;;;15.23;7.18;;;19.20;99.90;;;;;;5096792;27;20050;-71
2023/06/21 02:33:15;;;;;;;11.00;6.68;;;19.20;99.90;;;;;;5101533;27;20404;-72
2023/06/21 02:35:41;;;;;;;12.35;6.15;;;19.20;99.90;;;;;;5088341;27;20051;-71
2023/06/21 02:38:07;;;;;;;15.73;5.60;;;19.20;99.90;;;;;;5095940;27;20051;-72
2023/06/21 02:40:32;;;;;;;10.32;5.38;;;19.10;99.90;;;;;;5095549;27;20047;-72
2023/06/21 02:42:58;;;;;;;10.32;5.57;;;19.10;99.90;;;;;;5064936;27;20168;-72
2023/06/21 02:45:24;;;;;;;12.02;5.00;;;19.10;99.90;;;;;;5111853;27;20481;-71
2023/06/21 02:47:50;;;;;;;15.75;5.40;;;19.10;99.90;;;;;;5077992;27;20109;-73
2023/06/21 02:50:17;;;;;;;11.93;5.28;;;19.00;99.90;;;;;;5112515;27;20131;-71
2023/06/21 02:52:43;;;;;;;9.45;5.38;;;19.00;99.90;;;;;;5077220;27;20427;-73
2023/06/21 02:55:09;;;;;;;10.07;5.05;;;19.00;99.90;;;;;;5063301;27;20046;-70
2023/06/21 02:57:34;;;;;;;12.63;5.30;;;18.90;99.90;;;;;;5081724;27;20088;-71
2023/06/21 03:00:00;;;;;;;11.60;5.30;;;18.90;99.90;;;;;;5076625;27;20451;-71
2023/06/21 03:02:33;;;;;;;18.00;5.95;;;18.90;99.90;;;;;;5093520;27;20047;-71
2023/06/21 03:05:00;;;;;;;14.02;7.00;;;18.80;99.90;;;;;;5093568;27;20217;-71
2023/06/21 03:07:27;;;;;;;17.33;7.75;;;18.80;99.90;;;;;;5077322;27;20494;-71
2023/06/21 03:09:53;;;;;;;15.77;8.27;;;18.80;99.90;;;;;;5079188;27;20051;-70
2023/06/21 03:12:19;;;;;;;17.83;8.20;;;18.70;99.90;;;;;;5094169;27;20077;-72
2023/06/21 03:14:45;;;;;;;15.77;8.15;;;18.90;99.90;;;;;;5095361;27;20068;-71
2023/06/21 03:17:11;;;;;;;18.67;7.88;;;18.60;99.90;;;;;;5093390;27;20047;-71
2023/06/21 03:19:36;;;;;;;15.70;8.52;;;18.60;99.90;;;;;;5093703;27;20049;-71
2023/06/21 03:22:02;;;;;;;12.15;8.40;;;18.50;99.90;;;;;;5075381;27;20317;-71
2023/06/21 03:24:32;;;;;;;21.08;8.75;;;18.50;99.90;;;;;;5076416;27;20166;-73
2023/06/21 03:26:58;;;;;;;16.45;8.57;;;18.40;99.90;;;;;;5090373;27;20410;-70
2023/06/21 03:29:24;;;;;;;14.02;8.63;;;18.40;99.90;;;;;;5091767;27;20100;-70
2023/06/21 03:31:50;;;;;;;13.93;7.85;;;18.40;99.90;;;;;;5091435;27;20482;-70
2023/06/21 03:34:16;;;;;;;16.75;8.68;;;18.40;99.90;;;;;;5075385;27;20044;-71
2023/06/21 03:36:41;;;;;;;14.45;7.95;;;18.30;99.90;;;;;;5074760;27;20044;-71
2023/06/21 03:39:07;;;;;;;14.27;7.53;;;18.30;99.90;;;;;;5078351;27;20398;-70
2023/06/21 03:41:33;;;;;;;14.75;8.73;;;18.30;99.90;;;;;;5092054;27;20050;-72
2023/06/21 03:43:59;;;;;;;18.85;8.75;;;18.30;99.90;;;;;;5077099;27;20149;-71
2023/06/21 03:46:24;;;;;;;13.48;8.57;;;18.30;99.90;;;;;;5093794;27;20047;-70
2023/06/21 03:48:51;;;;;;;15.93;8.82;;;18.30;99.90;;;;;;5091951;27;20043;-72
2023/06/21 03:51:18;;;;;;;16.15;8.65;;;18.30;99.90;;;;;;5091248;27;20043;-71
2023/06/21 03:53:44;;;;;;;15.68;9.23;;;18.30;99.90;;;;;;5097917;27;20122;-71
2023/06/21 03:56:09;;;;;;;19.05;8.90;;;18.30;99.90;;;;;;5071833;27;20504;-71
2023/06/21 03:58:35;;;;;;;12.98;8.38;;;18.30;99.90;;;;;;5086540;27;20409;-70
2023/06/21 04:01:03;;;;;;;16.48;9.45;;;18.30;99.90;;;;;;5054023;28;20063;-72
2023/06/21 04:03:29;;;;;;;14.80;9.73;;;18.30;99.90;;;;;;5105837;27;20128;-71
2023/06/21 04:05:54;;;;;;;18.35;9.50;;;18.30;99.90;;;;;;5087877;27;20510;-71
2023/06/21 04:08:20;;;;;;;15.55;9.30;;;18.30;99.90;;;;;;5088000;28;20046;-71
2023/06/21 04:10:46;;;;;;;15.57;9.27;;;18.30;99.90;;;;;;5106494;27;20666;-70
2023/06/21 04:13:11;;;;;;;15.52;10.25;;;18.30;99.90;;;;;;5088139;27;20050;-72
2023/06/21 04:15:37;;;;;;;15.48;10.07;;;18.30;99.90;;;;;;5091606;27;20119;-72
2023/06/21 04:18:03;;;;;;;16.08;10.07;;;18.30;99.90;;;;;;5095250;27;20619;-70
2023/06/21 04:20:30;;;;;;;20.25;10.77;;;18.30;99.90;;;;;;5086154;28;20052;-71
2023/06/21 04:22:56;;;;;;;16.75;10.88;;;18.30;99.90;;;;;;5090123;28;20050;-71
2023/06/21 04:25:59;;;;;;;19.45;11.23;;;18.30;99.90;;;;;;5072800;28;20402;-75
2023/06/21 04:28:26;;;;;;;17.20;11.52;;;18.30;99.90;;;;;;5091397;27;20405;-78
2023/06/21 04:30:52;;;;;;;17.48;11.55;;;18.30;99.90;;;;;;5080918;28;20051;-75
2023/06/21 04:33:18;;;;;;;19.25;12.93;;;18.40;99.90;;;;;;5062187;28;21486;-75
2023/06/21 04:35:44;;;;;;;18.63;12.15;;;18.30;99.90;;;;;;5060793;28;20527;-74
2023/06/21 04:38:15;;;;;;;18.30;11.45;;;18.30;99.90;;;;;;5087723;28;20746;-78
2023/06/21 04:41:01;;;;;;;18.05;11.30;;;18.40;99.90;;;;;;5073574;28;20043;-75
2023/06/21 04:43:28;;;;;;;15.48;9.90;;;18.30;99.90;;;;;;5061418;28;20054;-75
2023/06/21 04:45:59;;;;;;;14.70;8.52;;;18.30;99.90;;;;;;5087802;28;22036;-78
2023/06/21 04:48:25;;;;;;;13.55;7.45;;;18.30;99.90;;;;;;5073409;28;20054;-75
2023/06/21 04:50:52;;;;;;;13.25;8.00;;;18.40;99.90;;;;;;5070783;28;20052;-77
2023/06/21 04:53:18;;;;;;;10.70;7.25;;;18.40;99.90;;;;;;5077324;28;20130;-74
2023/06/21 04:55:49;;;;;;;12.65;7.15;;;18.40;99.90;;;;;;5105467;28;20128;-78
2023/06/21 04:58:17;;;;;;;15.00;7.70;;;18.40;99.90;;;;;;5035715;28;20106;-76
2023/06/21 05:00:46;;;;;;;12.40;6.72;;;18.50;99.90;;;;;;5035165;28;20428;-76
2023/06/21 05:03:11;;;;;;;17.85;7.72;;;18.50;99.90;;;;;;5020743;28;20053;-78
2023/06/21 05:05:38;;;;;;;14.88;8.45;;;18.50;99.90;;;;;;5025196;28;20450;-73
2023/06/21 05:08:04;;;;;;;14.45;8.77;;;18.50;99.90;;;;;;5041353;28;20056;-74
2023/06/21 05:10:30;;;;;;;14.13;7.55;;;18.60;99.90;;;;;;5053777;28;20482;-73
2023/06/21 05:13:03;;;;;;;10.27;6.68;;;18.60;99.90;;;;;;5035620;28;20056;-77
2023/06/21 05:15:29;;;;;;;13.07;6.90;;;18.60;99.90;;;;;;5025744;28;20057;-75
2023/06/21 05:17:58;;;;;;;11.52;6.57;;;18.50;99.90;;;;;;5042682;28;20056;-75
2023/06/21 05:20:24;;;;;;;12.05;6.35;;;18.60;99.90;;;;;;5019544;28;20060;-74
2023/06/21 05:22:54;;;;;;;10.05;6.55;;;18.60;99.90;;;;;;5036358;28;20055;-74
2023/06/21 05:25:20;;;;;;;10.80;6.65;;;18.60;99.90;;;;;;5025949;28;20048;-79
2023/06/21 05:27:46;;;;;;;12.02;5.65;;;18.70;99.90;;;;;;5051204;28;20079;-79
2023/06/21 05:30:11;;;;;;;9.60;5.93;;;18.70;99.90;;;;;;5068238;27;20074;-82
2023/06/21 05:32:37;;;;;;;9.18;6.10;;;18.80;99.90;;;;;;5108133;27;20047;-83
2023/06/21 05:35:04;;;;;;;9.35;5.72;;;18.80;99.90;;;;;;5071542;27;20862;-83
2023/06/21 05:37:29;;;;;;;9.38;6.22;;;18.80;99.90;;;;;;5069709;27;20039;-81
2023/06/21 05:39:56;;;;;;;11.02;6.45;;;18.90;99.90;;;;;;5056202;27;20108;-81
2023/06/21 05:42:22;;;;;;;11.98;5.75;;;18.90;99.90;;;;;;5077730;27;20043;-81
2023/06/21 05:44:47;;;;;;;8.10;5.43;;;19.00;99.90;;;;;;5060153;27;20054;-83
2023/06/21 05:47:14;;;;;;;11.93;5.80;;;19.00;99.90;;;;;;5075977;27;20093;-82
2023/06/21 05:49:40;;;;;;;10.45;5.40;;;19.10;99.90;;;;;;5092485;27;20047;-81
2023/06/21 05:52:06;;;;;;;8.80;5.22;;;19.10;99.90;;;;;;5093864;27;20046;-81
2023/06/21 05:54:32;;;;;;;8.25;4.88;;;19.20;99.90;;;;;;5112583;27;20047;-75
2023/06/21 05:56:57;;;;;;;9.07;5.10;;;19.20;99.90;;;;;;5069981;27;20043;-75
2023/06/21 05:59:23;;;;;;;9.80;5.32;;;19.30;99.90;;;;;;5085622;27;20122;-76
2023/06/21 06:01:49;;;;;;;8.68;5.22;;;19.30;99.90;;;;;;5077858;27;20073;-78
2023/06/21 06:04:16;;;;;;;8.77;5.05;;;19.40;99.90;;;;;;5052747;27;20101;-77
2023/06/21 06:06:51;;;;;;;9.45;5.53;;;19.40;99.90;;;;;;5061863;27;20090;-86
2023/06/21 06:09:17;;;;;;;14.23;5.20;;;19.40;99.90;;;;;;5078968;27;20043;-82
2023/06/21 06:11:43;;;;;;;8.20;5.28;;;19.50;99.90;;;;;;5082043;27;20059;-82
2023/06/21 06:14:10;;;;;;;10.32;4.90;;;19.60;99.90;;;;;;5069997;27;20480;-82
2023/06/21 06:16:36;;;;;;;10.43;4.82;;;19.60;99.90;;;;;;5069452;27;20951;-82
2023/06/21 06:19:02;;;;;;;9.57;4.97;;;19.70;99.90;;;;;;5084086;27;20092;-82
2023/06/21 06:21:28;;;;;;;9.93;5.10;;;19.80;99.90;;;;;;5067453;27;20043;-81
2023/06/21 06:23:54;;;;;;;7.25;4.50;;;19.80;99.90;;;;;;5102187;27;20055;-82
2023/06/21 06:26:25;;;;;;;9.18;4.85;;;19.90;99.90;;;;;;5100805;27;20051;-83
2023/06/21 06:28:51;;;;;;;8.07;4.10;;;20.00;99.90;;;;;;5084756;27;20051;-73
2023/06/21 06:31:23;;;;;;;7.65;3.95;;;20.00;99.90;;;;;;5097482;27;20620;-77
2023/06/21 06:33:48;;;;;;;7.65;3.97;;;20.00;99.90;;;;;;5097109;27;20110;-76
2023/06/21 06:36:14;;;;;;;6.07;3.60;;;20.10;99.90;;;;;;5119301;27;20913;-76
2023/06/21 06:38:40;;;;;;;8.20;4.05;;;20.20;99.90;;;;;;5067284;27;20119;-76
2023/06/21 06:41:06;;;;;;;5.20;3.55;;;20.20;99.90;;;;;;5100079;27;20055;-76
2023/06/21 06:43:33;;;;;;;12.07;4.00;;;20.30;99.90;;;;;;5101291;27;20054;-79
2023/06/21 06:45:59;;;;;;;7.30;3.53;;;20.30;99.90;;;;;;5077431;27;20055;-78
2023/06/21 06:48:26;;;;;;;6.50;3.40;;;20.40;99.90;;;;;;5063170;27;20132;-77
2023/06/21 06:50:52;;;;;;;6.43;3.05;;;20.50;99.90;;;;;;5096891;27;20513;-77
2023/06/21 06:53:18;;;;;;;6.32;3.33;;;20.50;99.90;;;;;;5083955;27;20049;-79
2023/06/21 06:55:44;;;;;;;5.25;2.90;;;20.60;99.90;;;;;;5059565;28;20056;-79
2023/06/21 06:58:09;;;;;;;4.47;2.67;;;20.70;99.90;;;;;;5094397;27;20043;-78
2023/06/21 07:00:36;;;;;;;8.02;3.33;;;20.80;99.90;;;;;;5079887;27;20035;-77
2023/06/21 07:03:02;;;;;;;4.82;3.10;;;20.90;99.90;;;;;;5101614;28;20055;-78
2023/06/21 07:05:27;;;;;;;6.50;3.10;;;21.00;99.90;;;;;;5097533;27;20047;-78
2023/06/21 07:07:54;;;;;;;6.15;2.72;;;21.00;99.90;;;;;;5100940;27;20039;-77
2023/06/21 07:10:20;;;;;;;6.78;3.30;;;21.20;99.90;;;;;;5095774;27;20043;-78
2023/06/21 07:12:46;;;;;;;6.38;3.30;;;21.30;99.90;;;;;;5079777;27;20406;-79
2023/06/21 07:15:12;;;;;;;5.65;3.40;;;21.40;99.90;;;;;;5094773;27;20051;-78
2023/06/21 07:17:38;;;;;;;5.25;3.08;;;21.50;99.90;;;;;;5075442;27;20093;-82
2023/06/21 07:20:08;;;;;;;5.90;3.10;;;21.60;99.90;;;;;;5074843;27;20093;-81
2023/06/21 07:22:33;;;;;;;6.32;3.35;;;21.60;99.90;;;;;;5066304;27;20430;-81
2023/06/21 07:24:59;;;;;;;6.15;3.25;;;21.70;99.90;;;;;;5035750;27;20146;-82
2023/06/21 07:27:28;;;;;;;8.60;3.60;;;21.80;99.90;;;;;;5098195;27;20046;-81
2023/06/21 07:29:54;;;;;;;5.05;3.35;;;21.80;99.90;;;;;;5081812;27;20039;-81
2023/06/21 07:32:19;;;;;;;5.00;3.20;;;21.90;99.90;;;;;;5083712;27;20053;-81
2023/06/21 07:34:45;;;;;;;5.05;3.78;;;22.00;99.90;;;;;;5063993;27;20053;-80
2023/06/21 07:37:11;;;;;;;5.80;3.63;;;21.70;99.90;;;;;;5084279;27;20051;-81
2023/06/21 07:39:37;;;;;;;7.75;3.83;;;22.20;99.90;;;;;;5079713;27;20598;-81
2023/06/21 07:42:04;;;;;;;8.13;3.60;;;22.40;99.90;;;;;;5097410;27;20081;-82
2023/06/21 07:44:31;;;;;;;6.75;3.70;;;22.50;99.90;;;;;;5072959;27;20476;-81
2023/06/21 07:46:57;;;;;;;8.73;4.07;;;22.70;99.90;;;;;;5051510;27;20048;-81
2023/06/21 07:49:22;;;;;;;6.53;3.83;;;22.80;99.90;;;;;;5067210;27;20039;-82
2023/06/21 07:51:49;;;;;;;6.00;3.47;;;22.90;99.90;;;;;;5083280;27;20554;-81
2023/06/21 07:54:15;;;;;;;8.05;3.50;;;23.00;99.90;;;;;;5079429;27;20658;-79
2023/06/21 07:56:41;;;;;;;6.30;3.65;;;23.10;99.90;;;;;;5101208;27;20043;-80
2023/06/21 07:59:07;;;;;;;7.45;3.88;;;23.20;99.90;;;;;;5082526;27;20103;-81
2023/06/21 08:01:33;;;;;;;6.80;4.10;;;23.20;99.90;;;;;;5084371;27;20473;-80
2023/06/21 08:04:00;;;;;;;6.93;3.28;;;23.30;99.90;;;;;;5066593;27;20047;-81
2023/06/21 08:06:26;;;;;;;6.40;3.63;;;23.30;99.90;;;;;;5083250;27;20092;-74
2023/06/21 08:08:52;;;;;;;6.32;3.63;;;23.50;99.90;;;;;;5080299;27;20065;-77
2023/06/21 08:11:18;;;;;;;6.72;3.55;;;23.60;99.90;;;;;;5096378;27;20043;-75
2023/06/21 08:13:44;;;;;;;6.05;3.65;;;23.70;99.90;;;;;;5098908;27;20100;-75
2023/06/21 08:16:10;;;;;;;6.80;3.95;;;23.80;99.90;;;;;;5082265;27;20047;-74
2023/06/21 08:18:36;;;;;;;7.72;3.75;;;23.90;99.90;;;;;;5065240;28;20077;-74
2023/06/21 08:21:03;;;;;;;6.82;3.42;;;23.90;99.90;;;;;;5097179;28;20039;-75
2023/06/21 08:23:29;;;;;;;6.10;3.38;;;24.00;99.90;;;;;;5095598;28;20705;-75
2023/06/21 08:25:55;;;;;;;4.78;2.75;;;24.10;99.90;;;;;;5062341;28;20063;-76
2023/06/21 08:28:21;;;;;;;5.13;2.53;;;24.20;99.90;;;;;;5091136;27;20108;-76
2023/06/21 08:30:47;;;;;;;4.55;2.40;;;24.20;99.90;;;;;;5074821;28;20557;-77
2023/06/21 08:33:12;;;;;;;3.58;2.78;;;24.20;99.90;;;;;;5112997;27;20138;-77
2023/06/21 08:35:38;;;;;;;5.53;3.00;;;24.30;99.90;;;;;;5110839;28;20497;-76
2023/06/21 08:38:04;;;;;;;6.15;3.90;;;24.50;99.90;;;;;;5073047;28;20455;-75
2023/06/21 08:40:32;;;;;;;8.35;4.13;;;24.60;99.90;;;;;;5094749;28;20092;-75
2023/06/21 08:42:59;;;;;;;7.88;4.50;;;24.80;99.90;;;;;;5091038;28;20042;-76
2023/06/21 08:45:26;;;;;;;7.65;5.13;;;24.80;99.90;;;;;;5090174;28;20473;-76
2023/06/21 08:47:52;;;;;;;7.05;5.20;;;25.00;99.90;;;;;;5074993;28;20071;-76
2023/06/21 08:50:29;;;;;;;8.27;5.07;;;25.20;99.90;;;;;;5089273;28;20410;-77
2023/06/21 08:52:57;;;;;;;10.68;6.35;;;25.50;99.90;;;;;;5092545;28;20048;-76
2023/06/21 08:55:25;;;;;;;8.85;5.50;;;25.60;99.90;;;;;;5092999;28;20039;-76
2023/06/21 08:57:58;;;;;;;10.50;6.65;;;25.70;99.90;;;;;;5081476;28;20043;-76
2023/06/21 09:00:33;;;;;;;8.20;6.10;;;25.80;99.90;;;;;;5076802;28;20043;-76
2023/06/21 09:03:32;;;;;;;8.32;5.60;;;26.00;99.90;;;;;;5094692;28;20114;-77
2023/06/21 09:06:05;;;;;;;13.02;6.22;;;26.30;99.90;;;;;;5076654;28;20063;-76
2023/06/21 09:08:32;;;;;;;9.10;6.13;;;26.30;99.90;;;;;;5094490;28;20050;-76
2023/06/21 09:10:59;;;;;;;8.15;6.60;;;26.40;99.90;;;;;;5063552;28;20050;-73
2023/06/21 09:13:27;;;;;;;8.82;6.22;;;26.40;99.90;;;;;;5075327;28;20052;-81
2023/06/21 09:15:55;;;;;;;11.80;7.28;;;26.50;99.90;;;;;;5090538;28;21772;-74
2023/06/21 09:18:22;;;;;;;9.05;7.00;;;26.60;99.90;;;;;;5092936;28;20058;-74
2023/06/21 09:20:49;;;;;;;10.95;6.82;;;26.70;99.90;;;;;;5092046;28;20047;-74
2023/06/21 09:23:16;;;;;;;8.60;7.18;;;26.80;99.90;;;;;;5097720;28;20062;-75
2023/06/21 09:25:44;;;;;;;9.20;6.65;;;26.90;99.90;;;;;;5094198;28;20075;-74
2023/06/21 09:28:11;;;;;;;8.95;7.20;;;26.70;99.90;;;;;;5089827;28;20044;-74
2023/06/21 09:30:37;;;;;;;9.63;6.93;;;26.70;99.90;;;;;;5076971;28;20040;-77
2023/06/21 09:33:03;;;;;;;8.48;6.47;;;26.90;99.90;;;;;;5075480;28;20516;-75
2023/06/21 09:35:29;;;;;;;10.77;7.50;;;27.10;99.90;;;;;;5089795;28;20058;-75
2023/06/21 09:37:55;;;;;;;10.88;7.82;;;27.20;99.90;;;;;;5059759;28;20063;-71
2023/06/21 09:40:20;;;;;;;10.77;7.18;;;27.30;99.90;;;;;;5105471;28;20035;-75
2023/06/21 09:42:46;;;;;;;9.57;8.05;;;27.40;99.90;;;;;;5067693;28;20066;-73
2023/06/21 09:45:17;;;;;;;11.88;7.82;;;27.40;99.90;;;;;;5076737;28;20074;-74
2023/06/21 09:47:43;;;;;;;12.48;8.85;;;27.30;99.90;;;;;;5089468;27;20051;-75
2023/06/21 09:50:12;;;;;;;12.50;8.90;;;27.20;99.90;;;;;;5090936;27;20122;-74
2023/06/21 09:52:44;;;;;;;12.25;8.25;;;27.10;99.90;;;;;;5080461;27;20059;-74
2023/06/21 09:55:15;;;;;;;12.40;9.13;;;27.40;99.90;;;;;;5090416;27;20049;-72
2023/06/21 09:57:41;;;;;;;13.43;8.98;;;27.30;99.90;;;;;;5089184;27;21464;-73
2023/06/21 10:00:07;;;;;;;10.20;8.70;;;27.20;99.90;;;;;;5092565;27;20039;-74
2023/06/21 10:02:42;;;;;;;11.95;8.85;;;27.20;99.90;;;;;;5073728;27;20081;-74
2023/06/21 10:05:18;;;;;;;10.50;7.63;;;27.30;99.90;;;;;;5110338;27;20047;-75
2023/06/21 10:07:45;;;;;;;11.13;8.90;;;27.40;99.90;;;;;;5087661;27;20058;-75
2023/06/21 10:10:12;;;;;;;11.27;9.05;;;27.40;99.90;;;;;;5111792;27;20040;-75
2023/06/21 10:12:48;;;;;;;14.77;9.20;;;27.40;99.90;;;;;;5091959;27;20078;-75
2023/06/21 10:15:14;;;;;;;17.42;9.77;;;27.20;99.90;;;;;;5113696;27;20051;-74
2023/06/21 10:17:41;;;;;;;13.00;9.15;;;27.20;99.90;;;;;;5069472;27;20057;-75
2023/06/21 10:20:08;;;;;;;14.40;9.50;;;27.20;99.90;;;;;;5091623;27;20104;-76
2023/06/21 10:22:36;;;;;;;11.82;9.07;;;27.40;99.90;;;;;;5072175;27;20047;-75
2023/06/21 10:25:03;;;;;;;14.50;9.35;;;27.30;99.90;;;;;;5092055;27;20047;-73
2023/06/21 10:27:32;;;;;;;11.45;9.00;;;27.20;99.90;;;;;;5090617;27;20058;-88
2023/06/21 10:30:00;;;;;;;14.32;8.93;;;27.10;99.90;;;;;;5084374;28;20039;-78
2023/06/21 10:32:27;;;;;;;14.15;8.52;;;27.00;99.90;;;;;;5095871;27;20043;-76
2023/06/21 10:34:56;;;;;;;12.38;8.82;;;27.20;99.90;;;;;;5083906;27;20047;-77
2023/06/21 10:37:34;;;;;;;11.27;7.50;;;27.10;99.90;;;;;;5092404;27;20043;-77
2023/06/21 10:40:04;;;;;;;11.23;7.68;;;26.90;99.90;;;;;;5065369;27;20043;-77
2023/06/21 10:42:32;;;;;;;13.32;7.75;;;27.10;99.90;;;;;;5096028;27;20047;-77
2023/06/21 10:45:03;;;;;;;10.93;7.15;;;27.30;99.90;;;;;;5084940;27;20039;-77
2023/06/21 10:47:29;;;;;;;13.98;6.32;;;27.40;99.90;;;;;;5095499;27;20051;-78
2023/06/21 10:50:00;;;;;;;13.98;7.60;;;27.20;99.90;;;;;;5069672;27;20031;-77
2023/06/21 10:52:29;;;;;;;12.32;6.43;;;27.20;99.90;;;;;;5096860;27;20116;-77
2023/06/21 10:54:58;;;;;;;11.75;7.35;;;27.00;99.90;;;;;;5081216;27;20167;-78
2023/06/21 10:57:33;;;;;;;9.73;6.15;;;27.00;99.90;;;;;;5078039;27;20370;-77
2023/06/21 11:00:07;;;;;;;11.77;5.95;;;27.00;99.90;;;;;;5092077;27;20053;-77
2023/06/21 11:02:34;;;;;;;13.75;5.90;;;27.10;99.90;;;;;;5064252;27;20031;-76
2023/06/21 11:05:16;;;;;;;10.57;5.43;;;27.10;99.90;;;;;;5065055;27;20050;-78
2023/06/21 11:07:49;;;;;;;12.43;6.03;;;27.20;99.90;;;;;;5095129;27;20047;-77
2023/06/21 11:10:14;;;;;;;9.75;4.90;;;27.00;99.90;;;;;;5093200;27;20059;-76
2023/06/21 11:12:41;;;;;;;10.63;5.60;;;26.80;99.90;;;;;;5094532;27;20093;-76
2023/06/21 11:15:07;;;;;;;8.10;5.15;;;26.60;99.90;;;;;;5066224;27;20106;-77
2023/06/21 11:17:36;;;;;;;9.48;5.78;;;26.60;99.90;;;;;;5048339;27;20079;-77
2023/06/21 11:20:23;;;;;;;12.00;5.57;;;26.40;99.90;;;;;;5093520;27;20112;-77
2023/06/21 11:22:56;;;;;;;11.48;5.95;;;26.00;99.90;;;;;;5075766;27;20051;-79
2023/06/21 11:25:23;;;;;;;11.18;6.15;;;25.90;99.90;;;;;;5088036;27;20380;-76
2023/06/21 11:28:19;;;;;;;10.20;5.72;;;25.80;99.90;;;;;;5090476;27;20616;-77
2023/06/21 11:31:00;;;;;;;10.25;5.93;;;25.80;99.90;;;;;;5091882;27;20047;-77
2023/06/21 11:33:30;;;;;;;12.50;6.10;;;25.80;99.90;;;;;;5092089;27;20051;-76
2023/06/21 11:36:03;;;;;;;12.30;6.70;;;25.80;99.90;;;;;;5073075;27;20126;-71
2023/06/21 11:38:30;;;;;;;11.27;6.25;;;25.90;99.90;;;;;;5098023;27;20054;-76
2023/06/21 11:41:00;;;;;;;12.57;5.95;;;25.90;99.90;;;;;;5099587;27;20548;-76
2023/06/21 11:43:26;;;;;;;12.35;5.78;;;26.00;99.90;;;;;;5048489;28;20054;-77
2023/06/21 11:46:02;;;;;;;9.38;5.40;;;26.20;99.90;;;;;;5092635;27;20048;-77
2023/06/21 11:48:29;;;;;;;10.00;5.55;;;26.30;99.90;;;;;;5077082;27;20055;-75
2023/06/21 11:50:56;;;;;;;10.10;4.57;;;26.30;99.90;;;;;;5076714;27;20131;-77
2023/06/21 11:53:38;;;;;;;9.57;5.05;;;26.50;99.90;;;;;;5073912;27;22671;-77
2023/06/21 11:56:06;;;;;;;11.43;5.10;;;26.90;99.90;;;;;;5081746;27;20130;-77
2023/06/21 11:58:33;;;;;;;11.90;5.78;;;27.00;99.90;;;;;;5095281;27;20043;-76
2023/06/21 12:00:59;;;;;;;10.18;4.63;;;27.00;99.90;;;;;;5089573;27;20109;-78
2023/06/21 12:03:27;;;;;;;12.50;5.47;;;27.00;99.90;;;;;;5092662;27;20048;-76
2023/06/21 12:06:02;;;;;;;12.38;6.15;;;27.00;99.90;;;;;;5072661;27;20564;-77
2023/06/21 12:08:30;;;;;;;9.30;5.97;;;26.90;99.90;;;;;;5089482;27;20071;-76
2023/06/21 12:11:05;;;;;;;10.68;6.38;;;26.80;99.90;;;;;;5074151;28;20074;-77
2023/06/21 12:13:31;;;;;;;12.83;5.47;;;26.80;99.90;;;;;;5076089;28;20565;-77
2023/06/21 12:16:00;;;;;;;14.02;5.93;;;27.20;99.90;;;;;;5105150;27;20639;-77
2023/06/21 12:18:29;;;;;;;9.27;5.88;;;27.30;99.90;;;;;;5088116;27;20050;-76
2023/06/21 12:20:59;;;;;;;10.30;5.75;;;27.40;99.90;;;;;;5088621;27;20047;-78
2023/06/21 12:23:32;;;;;;;13.00;5.53;;;27.40;99.90;;;;;;5089835;28;20482;-76
2023/06/21 12:26:05;;;;;;;12.20;5.05;;;27.50;99.90;;;;;;5087599;28;20074;-76
2023/06/21 12:28:33;;;;;;;11.35;6.03;;;27.70;99.90;;;;;;5096219;28;20108;-76
2023/06/21 12:31:00;;;;;;;8.52;6.70;;;27.70;99.90;;;;;;5099013;28;20457;-76
2023/06/21 12:33:37;;;;;;;10.48;6.70;;;27.60;99.90;;;;;;5099045;28;20513;-75
2023/06/21 12:36:23;;;;;;;10.82;5.95;;;27.50;99.90;;;;;;5075143;28;20158;-79
2023/06/21 12:38:50;;;;;;;9.85;5.90;;;27.50;99.90;;;;;;5099828;28;20092;-78
2023/06/21 12:41:20;;;;;;;9.45;6.03;;;27.50;99.90;;;;;;5100460;28;20051;-78
2023/06/21 12:43:49;;;;;;;11.68;6.25;;;27.30;99.90;;;;;;5057415;28;20130;-79